Time;durP1;ratioP1;P1;durP2;ratioP2;P2;SDS_P1;SDS_P2;PMS_P1;PMS_P2;Temp;Humidity;BMP_temperature;BMP_pressure;BME280_temperature;BME280_humidity;BME280_pressure;Samples;Min_cycle;Max_cycle;Signal;HPM_P1;HPM_P2
2022/06/22 00:00:21;;;;;;;5.55;3.10;;;12.40;99.90;;;;;;5013519;28;20378;-84
2022/06/22 00:02:50;;;;;;;5.43;3.00;;;12.40;99.90;;;;;;5012736;28;20383;-84
2022/06/22 00:05:31;;;;;;;4.07;3.15;;;12.40;99.90;;;;;;5013973;28;20367;-84
2022/06/22 00:08:00;;;;;;;4.50;2.90;;;12.40;99.90;;;;;;5013736;28;20403;-84
2022/06/22 00:10:33;;;;;;;4.28;3.20;;;12.30;99.90;;;;;;5012170;28;20430;-84
2022/06/22 00:13:01;;;;;;;4.30;2.97;;;12.30;99.90;;;;;;5012519;28;20390;-84
2022/06/22 00:15:37;;;;;;;4.07;3.08;;;12.30;99.90;;;;;;5012285;28;20474;-85
2022/06/22 00:18:22;;;;;;;4.35;2.90;;;12.30;99.90;;;;;;5012322;28;20386;-85
2022/06/22 00:20:53;;;;;;;5.03;2.90;;;12.20;99.90;;;;;;5011892;28;20525;-84
2022/06/22 00:23:30;;;;;;;7.22;3.70;;;12.30;99.90;;;;;;5012128;28;20391;-84
2022/06/22 00:26:06;;;;;;;3.53;3.22;;;12.30;99.90;;;;;;5011692;28;20901;-85
2022/06/22 00:28:51;;;;;;;5.22;3.67;;;12.20;99.90;;;;;;5013414;28;20473;-85
2022/06/22 00:31:38;;;;;;;5.10;3.30;;;12.20;99.90;;;;;;5011922;28;20402;-84
2022/06/22 00:34:09;;;;;;;3.28;2.97;;;12.10;99.90;;;;;;5013555;28;20387;-84
2022/06/22 00:36:45;;;;;;;5.70;3.55;;;12.20;99.90;;;;;;5012260;28;20383;-84
2022/06/22 00:39:15;;;;;;;4.13;3.40;;;12.10;99.90;;;;;;5013515;28;20407;-85
2022/06/22 00:41:44;;;;;;;5.13;3.47;;;12.10;99.90;;;;;;5011478;28;20399;-85
2022/06/22 00:44:14;;;;;;;4.72;3.40;;;12.00;99.90;;;;;;5011968;28;20441;-85
2022/06/22 00:46:54;;;;;;;4.53;3.33;;;12.00;99.90;;;;;;5013118;28;20399;-85
2022/06/22 00:49:22;;;;;;;8.00;3.13;;;12.00;99.90;;;;;;5011714;28;20453;-85
2022/06/22 00:51:48;;;;;;;3.58;3.00;;;12.00;99.90;;;;;;5011652;28;20424;-85
2022/06/22 00:54:19;;;;;;;4.60;2.90;;;12.00;99.90;;;;;;5013097;28;20427;-85
2022/06/22 00:57:13;;;;;;;4.23;3.07;;;11.90;99.90;;;;;;5011610;28;20391;-85
2022/06/22 00:59:41;;;;;;;5.40;3.20;;;;;;;;;;4997502;28;20478;-84
2022/06/22 01:02:38;;;;;;;4.75;3.15;;;11.90;99.90;;;;;;5011556;28;20375;-84
2022/06/22 01:05:12;;;;;;;3.80;3.23;;;11.80;99.90;;;;;;5011385;28;20454;-84
2022/06/22 01:07:44;;;;;;;3.78;3.10;;;11.80;99.90;;;;;;5011340;28;20410;-84
2022/06/22 01:10:24;;;;;;;4.63;3.73;;;11.80;99.90;;;;;;5012581;28;20386;-84
2022/06/22 01:13:00;;;;;;;5.13;3.40;;;11.70;99.90;;;;;;5012827;28;20407;-84
2022/06/22 01:15:41;;;;;;;5.78;3.30;;;11.70;99.90;;;;;;5011086;28;20858;-85
2022/06/22 01:18:27;;;;;;;5.13;3.42;;;11.60;99.90;;;;;;5011330;28;20397;-84
2022/06/22 01:20:56;;;;;;;3.88;3.53;;;11.60;99.90;;;;;;5011968;28;20395;-84
2022/06/22 01:23:29;;;;;;;5.23;3.47;;;11.60;99.90;;;;;;5012465;28;21216;-84
2022/06/22 01:26:09;;;;;;;6.10;3.70;;;11.60;99.90;;;;;;5012130;28;20461;-85
2022/06/22 01:28:35;;;;;;;5.85;4.03;;;11.60;99.90;;;;;;5012244;28;20398;-84
2022/06/22 01:31:12;;;;;;;4.45;3.80;;;11.50;99.90;;;;;;5010645;28;20399;-84
2022/06/22 01:33:43;;;;;;;5.50;3.85;;;11.50;99.90;;;;;;5012293;28;20375;-84
2022/06/22 01:36:24;;;;;;;4.18;3.75;;;11.50;99.90;;;;;;5011173;28;20394;-84
2022/06/22 01:38:51;;;;;;;3.97;3.53;;;11.50;99.90;;;;;;5010892;28;20387;-84
2022/06/22 01:41:44;;;;;;;5.40;3.58;;;11.40;99.90;;;;;;5011746;28;20484;-84
2022/06/22 01:44:30;;;;;;;4.78;3.65;;;11.40;99.90;;;;;;5012104;28;20390;-84
2022/06/22 01:47:07;;;;;;;4.90;3.70;;;11.40;99.90;;;;;;5010549;28;20415;-84
2022/06/22 01:49:49;;;;;;;4.18;3.72;;;11.30;99.90;;;;;;5010744;28;20406;-84
2022/06/22 01:52:30;;;;;;;4.15;3.60;;;11.30;99.90;;;;;;5010210;28;20811;-83
2022/06/22 01:55:03;;;;;;;4.97;3.40;;;11.30;99.90;;;;;;5010268;28;20817;-84
2022/06/22 01:57:40;;;;;;;4.65;3.58;;;11.20;99.90;;;;;;5011846;28;20418;-84
2022/06/22 02:00:11;;;;;;;4.78;3.58;;;11.10;99.90;;;;;;5011922;28;20379;-84
2022/06/22 02:02:56;;;;;;;4.82;3.70;;;11.10;99.90;;;;;;5011650;28;20383;-84
2022/06/22 02:05:43;;;;;;;4.18;3.78;;;11.10;99.90;;;;;;5011850;28;20881;-83
2022/06/22 02:08:20;;;;;;;4.13;3.67;;;11.00;99.90;;;;;;5010537;28;20468;-84
2022/06/22 02:11:11;;;;;;;5.87;3.57;;;11.00;99.90;;;;;;5010304;28;20478;-84
2022/06/22 02:13:42;;;;;;;4.57;4.05;;;10.90;99.90;;;;;;5010780;28;20390;-84
2022/06/22 02:16:19;;;;;;;4.70;3.50;;;10.90;99.90;;;;;;5009924;28;20390;-84
2022/06/22 02:19:10;;;;;;;5.95;3.67;;;10.90;99.90;;;;;;5010533;28;20391;-83
2022/06/22 02:21:39;;;;;;;5.07;3.87;;;10.80;99.90;;;;;;5003214;28;20606;-84
2022/06/22 02:24:10;;;;;;;4.03;3.63;;;10.80;99.90;;;;;;5010120;28;20375;-84
2022/06/22 02:27:05;;;;;;;6.13;3.63;;;10.80;99.90;;;;;;5010905;28;20413;-83
2022/06/22 02:29:43;;;;;;;6.60;3.83;;;10.70;99.90;;;;;;5004361;28;20379;-84
2022/06/22 02:32:14;;;;;;;3.83;3.42;;;10.60;99.90;;;;;;5011069;28;20398;-83
2022/06/22 02:34:43;;;;;;;4.90;3.50;;;10.60;99.90;;;;;;5011816;28;20375;-84
2022/06/22 02:37:09;;;;;;;4.35;3.92;;;10.70;99.90;;;;;;5012171;28;20382;-83
2022/06/22 02:39:45;;;;;;;4.03;3.63;;;10.60;99.90;;;;;;5009959;28;20510;-84
2022/06/22 02:44:56;;;;;;;4.57;3.60;;;10.60;99.90;;;;;;5011062;28;20394;-84
2022/06/22 02:47:46;;;;;;;4.68;3.95;;;10.60;99.90;;;;;;5011064;28;20457;-84
2022/06/22 02:50:22;;;;;;;4.63;3.60;;;10.60;99.90;;;;;;5009494;28;20430;-83
2022/06/22 02:53:02;;;;;;;5.82;4.15;;;10.60;99.90;;;;;;5008772;28;20424;-85
2022/06/22 02:55:35;;;;;;;4.67;4.27;;;10.60;99.90;;;;;;5009679;28;20821;-84
2022/06/22 02:58:03;;;;;;;6.97;4.03;;;10.60;99.90;;;;;;5009600;28;20379;-85
2022/06/22 03:00:33;;;;;;;5.27;3.87;;;10.50;99.90;;;;;;5010695;28;20393;-83
2022/06/22 03:03:08;;;;;;;6.13;4.10;;;10.50;99.90;;;;;;5011070;28;20919;-85
2022/06/22 03:05:36;;;;;;;3.95;3.60;;;10.50;99.90;;;;;;5009556;28;20770;-83
2022/06/22 03:08:03;;;;;;;5.05;3.97;;;10.50;99.90;;;;;;5010698;28;20927;-84
2022/06/22 03:10:38;;;;;;;5.57;3.92;;;10.60;99.90;;;;;;5009491;28;20382;-85
2022/06/22 03:13:04;;;;;;;4.13;3.72;;;10.50;99.90;;;;;;5010465;28;20567;-83
2022/06/22 03:15:34;;;;;;;4.00;3.70;;;10.60;99.90;;;;;;5009282;28;20391;-85
2022/06/22 03:18:01;;;;;;;4.68;3.97;;;10.50;99.90;;;;;;5009448;28;20952;-84
2022/06/22 03:20:32;;;;;;;4.03;3.60;;;10.60;99.90;;;;;;5010093;28;20969;-84
2022/06/22 03:23:07;;;;;;;4.65;3.90;;;10.70;99.90;;;;;;5010296;28;20482;-84
2022/06/22 03:26:02;;;;;;;4.10;3.50;;;10.70;99.90;;;;;;5010574;28;20406;-85
2022/06/22 03:28:34;;;;;;;10.82;3.95;;;10.80;99.90;;;;;;5012301;28;20421;-84
2022/06/22 03:31:05;;;;;;;3.67;3.35;;;10.80;99.90;;;;;;5013073;28;20466;-84
2022/06/22 03:33:38;;;;;;;3.88;3.47;;;10.90;99.90;;;;;;5014529;28;20383;-84
2022/06/22 03:36:13;;;;;;;3.50;3.20;;;10.90;99.90;;;;;;5013351;28;20410;-84
2022/06/22 03:38:45;;;;;;;3.97;3.37;;;10.90;99.90;;;;;;5013090;28;20391;-85
2022/06/22 03:41:19;;;;;;;2.95;2.70;;;11.00;99.90;;;;;;5012674;28;20394;-85
2022/06/22 03:43:57;;;;;;;4.13;3.17;;;11.00;99.90;;;;;;4996211;28;20943;-85
2022/06/22 03:46:26;;;;;;;3.42;2.83;;;11.10;99.90;;;;;;5013224;28;20417;-84
2022/06/22 03:49:16;;;;;;;3.20;2.90;;;11.10;99.90;;;;;;5014332;28;20379;-84
2022/06/22 03:51:46;;;;;;;2.83;2.63;;;11.30;99.90;;;;;;5013059;28;20383;-85
2022/06/22 03:54:15;;;;;;;3.90;2.85;;;11.40;99.90;;;;;;5014719;28;20821;-85
2022/06/22 03:56:50;;;;;;;3.67;3.08;;;11.40;99.90;;;;;;5013974;28;20410;-84
2022/06/22 03:59:16;;;;;;;3.42;2.70;;;11.40;99.90;;;;;;5014799;28;20390;-84
2022/06/22 04:01:42;;;;;;;2.80;2.60;;;11.40;99.90;;;;;;5013158;28;20466;-84
2022/06/22 04:04:09;;;;;;;4.15;2.65;;;11.50;99.90;;;;;;5013534;28;20874;-84
2022/06/22 04:06:40;;;;;;;3.88;2.65;;;11.50;99.90;;;;;;5014023;28;20916;-84
2022/06/22 04:09:11;;;;;;;2.58;2.38;;;11.70;99.90;;;;;;5014754;28;20402;-84
2022/06/22 04:11:50;;;;;;;2.78;2.50;;;11.70;99.90;;;;;;5012649;28;20379;-84
2022/06/22 04:14:19;;;;;;;4.32;2.67;;;11.70;99.90;;;;;;5013527;28;20457;-84
2022/06/22 04:16:49;;;;;;;2.60;2.40;;;11.70;99.90;;;;;;5012564;28;20394;-84
2022/06/22 04:19:24;;;;;;;2.50;2.30;;;11.70;99.90;;;;;;5012067;28;20444;-84
2022/06/22 04:21:55;;;;;;;5.93;3.10;;;11.80;99.90;;;;;;5013558;28;20386;-84
2022/06/22 04:24:29;;;;;;;2.95;2.70;;;11.90;99.90;;;;;;5013327;28;20873;-84
2022/06/22 04:27:06;;;;;;;3.53;2.58;;;12.00;99.90;;;;;;5008641;28;20430;-85
2022/06/22 04:29:47;;;;;;;5.97;2.90;;;12.10;99.90;;;;;;5011924;28;20897;-84
2022/06/22 04:32:19;;;;;;;2.53;2.33;;;12.40;99.90;;;;;;5013289;28;20386;-84
2022/06/22 04:35:16;;;;;;;3.38;2.65;;;12.40;99.90;;;;;;5013646;28;20375;-85
2022/06/22 04:37:53;;;;;;;2.97;2.65;;;12.60;99.90;;;;;;5013380;28;20452;-84
2022/06/22 04:40:35;;;;;;;5.07;3.13;;;12.80;99.90;;;;;;5013426;28;21298;-85
2022/06/22 04:43:03;;;;;;;3.17;2.43;;;13.00;99.90;;;;;;5012984;28;20391;-85
2022/06/22 04:45:38;;;;;;;4.00;2.85;;;13.30;99.90;;;;;;5012166;28;20449;-85
2022/06/22 04:48:10;;;;;;;3.28;2.78;;;13.70;99.90;;;;;;5011050;28;20415;-86
2022/06/22 04:50:38;;;;;;;4.03;2.65;;;14.00;99.90;;;;;;5008949;28;20409;-85
2022/06/22 04:53:06;;;;;;;3.15;2.33;;;14.40;99.90;;;;;;5031404;28;20447;-85
2022/06/22 04:55:38;;;;;;;6.65;2.30;;;14.70;99.90;;;;;;5020783;28;20959;-86
2022/06/22 04:58:15;;;;;;;4.35;2.67;;;14.90;99.90;;;;;;5001475;28;20395;-86
2022/06/22 05:00:46;;;;;;;4.63;2.55;;;15.40;99.90;;;;;;5008544;28;20395;-85
2022/06/22 05:03:13;;;;;;;3.97;2.25;;;16.00;99.90;;;;;;5011413;28;20445;-85
2022/06/22 05:05:41;;;;;;;2.35;1.80;;;16.50;99.90;;;;;;5001830;28;20380;-86
2022/06/22 05:08:27;;;;;;;2.47;2.10;;;17.40;99.90;;;;;;5005014;28;20409;-86
2022/06/22 05:10:59;;;;;;;3.45;2.40;;;18.00;99.90;;;;;;5010050;28;20413;-85
2022/06/22 05:13:28;;;;;;;3.83;2.42;;;;;;;;;;5009894;28;20410;-85
2022/06/22 05:15:55;;;;;;;4.07;2.17;;;;;;;;;;5010790;28;20498;-86
2022/06/22 05:18:27;;;;;;;4.03;2.47;;;;;;;;;;5008127;28;20411;-85
2022/06/22 05:21:11;;;;;;;4.40;2.28;;;19.70;99.90;;;;;;5003525;28;20442;-85
2022/06/22 05:23:39;;;;;;;6.00;2.55;;;19.80;99.90;;;;;;5010235;28;20395;-86
2022/06/22 05:26:07;;;;;;;4.13;2.63;;;19.80;99.90;;;;;;5010886;28;20390;-86
2022/06/22 05:28:36;;;;;;;6.72;3.13;;;19.40;99.90;;;;;;5010062;28;20434;-86
2022/06/22 05:31:10;;;;;;;5.53;3.30;;;19.20;99.90;;;;;;5008032;28;20375;-85
2022/06/22 05:33:39;;;;;;;5.78;3.10;;;18.90;99.90;;;;;;5011738;28;20387;-87
2022/06/22 05:36:11;;;;;;;5.10;2.95;;;18.80;99.90;;;;;;5010207;28;20379;-86
2022/06/22 05:38:46;;;;;;;4.97;2.57;;;18.80;99.90;;;;;;5009777;28;20893;-87
2022/06/22 05:41:20;;;;;;;6.03;3.03;;;18.80;99.90;;;;;;5012219;28;20363;-86
2022/06/22 05:43:47;;;;;;;6.33;3.10;;;18.80;99.90;;;;;;5008895;28;20421;-85
2022/06/22 05:46:14;;;;;;;4.95;2.72;;;18.80;99.90;;;;;;5011048;28;20437;-86
2022/06/22 05:48:44;;;;;;;4.85;2.80;;;19.00;99.90;;;;;;5011336;28;20449;-87
2022/06/22 05:51:34;;;;;;;4.18;3.10;;;19.20;99.90;;;;;;5000457;28;20866;-85
2022/06/22 05:54:11;;;;;;;5.15;2.90;;;19.30;99.90;;;;;;5012605;28;20470;-85
2022/06/22 05:56:45;;;;;;;5.95;3.20;;;19.50;99.90;;;;;;5012271;28;20936;-86
2022/06/22 05:59:50;;;;;;;4.82;3.03;;;19.60;99.90;;;;;;5014006;28;20454;-84
2022/06/22 06:02:20;;;;;;;5.47;3.00;;;19.60;99.90;;;;;;5010967;28;20395;-86
2022/06/22 06:05:05;;;;;;;5.03;2.72;;;19.70;99.90;;;;;;5009728;28;20383;-84
2022/06/22 06:07:38;;;;;;;4.03;2.30;;;20.00;99.90;;;;;;5008907;28;20460;-87
2022/06/22 06:10:13;;;;;;;6.30;3.03;;;20.40;99.90;;;;;;5008087;28;20410;-87
2022/06/22 06:12:45;;;;;;;12.27;3.35;;;20.90;99.90;;;;;;5014578;28;20418;-86
2022/06/22 06:15:13;;;;;;;12.60;3.53;;;21.20;99.90;;;;;;4992706;28;20509;-86
2022/06/22 06:17:43;;;;;;;7.63;3.40;;;21.60;99.90;;;;;;4994488;28;20399;-86
2022/06/22 06:20:21;;;;;;;10.77;4.13;;;21.90;99.90;;;;;;5009411;28;20387;-87
2022/06/22 06:22:49;;;;;;;9.07;3.70;;;22.00;99.90;;;;;;5002980;28;20921;-85
2022/06/22 06:28:25;;;;;;;7.28;2.35;;;22.40;99.90;;;;;;5018294;28;20916;-84
2022/06/22 06:30:52;;;;;;;8.07;2.92;;;;;;;;;;5007624;28;20463;-84
2022/06/22 06:33:32;;;;;;;9.60;3.05;;;;;;;;;;5012721;28;20440;-83
2022/06/22 06:36:16;;;;;;;10.70;3.13;;;;;;;;;;5009968;28;20388;-85
2022/06/22 06:38:48;;;;;;;8.60;2.70;;;;;;;;;;5012076;28;20461;-84
2022/06/22 06:41:31;;;;;;;6.95;2.60;;;23.60;99.90;;;;;;5017400;28;20723;-84
2022/06/22 06:44:19;;;;;;;6.00;1.92;;;23.80;99.90;;;;;;5011657;28;20375;-83
2022/06/22 06:46:53;;;;;;;7.28;2.30;;;24.40;99.90;;;;;;5006951;28;20418;-84
2022/06/22 06:49:32;;;;;;;4.07;1.80;;;24.60;99.90;;;;;;5010520;28;20917;-83
2022/06/22 06:52:10;;;;;;;4.47;1.92;;;25.10;99.10;;;;;;5012186;28;20379;-86
2022/06/22 06:54:42;;;;;;;4.20;1.65;;;25.50;98.60;;;;;;5013027;28;20422;-84
2022/06/22 06:57:16;;;;;;;5.35;1.83;;;25.80;97.90;;;;;;5010380;28;20387;-85
2022/06/22 06:59:46;;;;;;;5.60;1.83;;;26.10;97.70;;;;;;5010613;28;20391;-84
2022/06/22 07:02:19;;;;;;;3.88;1.70;;;26.20;95.50;;;;;;5011400;28;20461;-86
2022/06/22 07:04:45;;;;;;;2.78;1.48;;;;;;;;;;5008594;28;20390;-86
2022/06/22 07:07:33;;;;;;;5.38;1.88;;;;;;;;;;5010738;28;20407;-84
2022/06/22 07:10:02;;;;;;;3.53;1.80;;;;;;;;;;5005651;28;20872;-82
2022/06/22 07:12:38;;;;;;;4.13;1.60;;;;;;;;;;5012437;28;20395;-85
2022/06/22 07:15:09;;;;;;;5.57;1.83;;;27.50;99.90;;;;;;5001272;28;20379;-82
2022/06/22 07:17:35;;;;;;;8.10;2.03;;;27.40;99.90;;;;;;4999652;28;20730;-82
2022/06/22 07:20:13;;;;;;;4.17;1.73;;;27.50;90.40;;;;;;5006813;28;20485;-83
2022/06/22 07:22:48;;;;;;;6.28;1.70;;;;;;;;;;5006301;28;21052;-83
2022/06/22 07:25:22;;;;;;;2.47;1.20;;;27.50;83.40;;;;;;5011374;28;20379;-85
2022/06/22 07:27:57;;;;;;;3.10;1.10;;;27.60;75.90;;;;;;5008137;28;20407;-85
2022/06/22 07:30:32;;;;;;;3.45;1.45;;;27.50;75.50;;;;;;5010876;28;20406;-87
2022/06/22 07:33:27;;;;;;;4.43;1.48;;;27.50;80.10;;;;;;5005425;28;20407;-85
2022/06/22 07:36:14;;;;;;;4.10;1.50;;;27.50;78.60;;;;;;5008016;28;20611;-84
2022/06/22 07:38:40;;;;;;;3.45;1.40;;;27.40;80.00;;;;;;5010001;28;20486;-84
2022/06/22 07:41:18;;;;;;;3.80;1.27;;;27.40;81.90;;;;;;5010076;28;20474;-88
2022/06/22 07:43:53;;;;;;;1.90;1.03;;;27.40;80.00;;;;;;5003241;28;20885;-84
2022/06/22 07:46:23;;;;;;;4.88;1.50;;;;;;;;;;5009815;28;20422;-84
2022/06/22 07:48:54;;;;;;;3.25;1.65;;;27.50;95.90;;;;;;4991124;28;20484;-85
2022/06/22 07:51:28;;;;;;;4.28;1.60;;;27.40;79.20;;;;;;5009475;28;20441;-83
2022/06/22 07:54:05;;;;;;;6.45;1.80;;;27.30;92.60;;;;;;5008018;28;20395;-85
2022/06/22 07:56:36;;;;;;;3.90;1.70;;;27.20;84.40;;;;;;5008272;28;20375;-85
2022/06/22 07:59:06;;;;;;;4.53;1.60;;;27.10;89.00;;;;;;5010516;28;20394;-86
2022/06/22 08:01:39;;;;;;;4.30;1.60;;;27.10;88.10;;;;;;5001617;28;20447;-83
2022/06/22 08:04:15;;;;;;;5.72;1.83;;;27.10;85.50;;;;;;5008390;28;20844;-85
2022/06/22 08:06:46;;;;;;;3.42;1.60;;;27.00;88.50;;;;;;5009189;28;20388;-84
2022/06/22 08:09:35;;;;;;;3.70;1.85;;;26.80;86.20;;;;;;5011021;28;20382;-88
2022/06/22 08:12:20;;;;;;;3.55;1.48;;;26.70;86.00;;;;;;5005591;28;21048;-85
2022/06/22 08:14:49;;;;;;;3.55;1.48;;;26.70;89.30;;;;;;5008793;28;20936;-86
2022/06/22 08:19:57;;;;;;;3.22;1.48;;;26.80;87.70;;;;;;3193749;22;20426;-84
2022/06/22 08:22:23;;;;;;;3.17;1.52;;;26.60;88.70;;;;;;5000771;28;20483;-83
2022/06/22 08:24:52;;;;;;;4.10;1.42;;;26.40;78.30;;;;;;5004867;28;20829;-83
2022/06/22 08:27:21;;;;;;;5.88;1.55;;;26.40;82.80;;;;;;5000157;28;20869;-86
2022/06/22 08:29:48;;;;;;;4.68;1.42;;;26.50;90.80;;;;;;5003329;28;20388;-84
2022/06/22 08:32:31;;;;;;;3.67;1.63;;;26.80;90.90;;;;;;5005250;28;20516;-84
2022/06/22 08:35:08;;;;;;;3.80;1.40;;;26.80;91.60;;;;;;5003523;28;20468;-85
2022/06/22 08:37:50;;;;;;;3.08;1.30;;;26.90;78.00;;;;;;5003256;28;20467;-85
2022/06/22 08:40:28;;;;;;;3.35;1.45;;;;;;;;;;5004208;28;20893;-84
2022/06/22 08:43:04;;;;;;;4.20;1.73;;;;;;;;;;5002709;28;20388;-85
2022/06/22 08:45:48;;;;;;;2.75;1.42;;;;;;;;;;5002708;28;20388;-84
2022/06/22 08:48:23;;;;;;;4.43;1.70;;;;;;;;;;4999972;28;20900;-86
2022/06/22 08:50:49;;;;;;;2.92;1.60;;;;;;;;;;4999844;28;20459;-86
2022/06/22 08:53:25;;;;;;;3.22;1.48;;;;;;;;;;4996487;28;20384;-86
2022/06/22 08:56:09;;;;;;;4.00;1.30;;;;;;;;;;5003506;28;20440;-85
2022/06/22 08:59:01;;;;;;;3.17;1.63;;;;;;;;;;5004628;28;20418;-85
2022/06/22 09:01:32;;;;;;;3.15;1.60;;;;;;;;;;5003664;28;20377;-84
2022/06/22 09:04:16;;;;;;;4.50;1.60;;;;;;;;;;5003510;28;20372;-86
2022/06/22 09:06:56;;;;;;;5.28;1.90;;;;;;;;;;5002248;28;20406;-84
2022/06/22 09:09:34;;;;;;;3.58;1.70;;;;;;;;;;5003685;28;20375;-84
2022/06/22 09:12:13;;;;;;;5.43;1.52;;;27.30;74.90;;;;;;5001780;28;20387;-85
2022/06/22 09:14:56;;;;;;;4.03;1.40;;;27.30;77.10;;;;;;5004157;28;20460;-86
2022/06/22 09:17:31;;;;;;;4.22;1.80;;;27.30;76.70;;;;;;5001832;28;20397;-84
2022/06/22 09:20:33;;;;;;;3.60;1.63;;;27.10;72.60;;;;;;5000876;28;20429;-86
2022/06/22 09:23:06;;;;;;;3.38;1.55;;;26.80;71.70;;;;;;5004149;28;20486;-86
2022/06/22 09:25:49;;;;;;;3.25;1.63;;;26.60;72.00;;;;;;5001868;28;20376;-86
2022/06/22 09:28:22;;;;;;;3.83;1.83;;;26.60;72.10;;;;;;5000956;28;20414;-85
2022/06/22 09:31:09;;;;;;;3.85;1.70;;;26.60;74.50;;;;;;5002169;28;20377;-86
2022/06/22 09:34:06;;;;;;;3.35;1.63;;;26.50;72.20;;;;;;5001257;28;20437;-84
2022/06/22 09:36:38;;;;;;;5.10;1.80;;;26.50;76.10;;;;;;4991628;28;20401;-86
2022/06/22 09:39:39;;;;;;;3.08;1.60;;;26.60;73.40;;;;;;4992361;28;20389;-88
2022/06/22 09:42:33;;;;;;;3.50;1.70;;;26.70;76.60;;;;;;4935655;29;20486;-88
2022/06/22 09:45:32;;;;;;;3.50;1.35;;;27.00;72.90;;;;;;4973000;28;20472;-87
2022/06/22 09:47:57;;;;;;;5.22;1.50;;;27.00;71.40;;;;;;4999629;28;20414;-85
2022/06/22 09:50:48;;;;;;;3.92;1.27;;;27.10;75.00;;;;;;5009724;28;20399;-86
2022/06/22 09:53:32;;;;;;;4.07;1.55;;;27.30;76.10;;;;;;5011029;28;20880;-86
2022/06/22 09:56:27;;;;;;;3.47;1.30;;;27.00;69.10;;;;;;5011557;28;20461;-85
2022/06/22 09:59:17;;;;;;;3.58;1.30;;;26.80;70.90;;;;;;5011752;28;20379;-88
2022/06/22 10:01:48;;;;;;;4.40;1.50;;;26.50;69.40;;;;;;5000051;28;20399;-86
2022/06/22 10:04:39;;;;;;;3.55;1.40;;;26.40;76.10;;;;;;5002682;28;20376;-87
2022/06/22 10:07:37;;;;;;;3.50;1.40;;;26.70;74.50;;;;;;4999908;28;20416;-87
2022/06/22 10:10:23;;;;;;;1.88;1.10;;;26.50;70.20;;;;;;5000295;28;20414;-88
2022/06/22 10:13:13;;;;;;;1.92;1.17;;;26.50;70.70;;;;;;5001816;28;20394;-84
2022/06/22 10:15:47;;;;;;;3.13;1.30;;;26.70;74.70;;;;;;5001224;28;20863;-87
2022/06/22 10:18:58;;;;;;;2.93;1.53;;;26.80;69.80;;;;;;5000628;28;20389;-87
2022/06/22 10:21:52;;;;;;;6.60;1.70;;;26.90;69.80;;;;;;4996234;28;20440;-84
2022/06/22 10:24:29;;;;;;;3.40;1.35;;;26.60;66.90;;;;;;5000600;28;20941;-89
2022/06/22 10:27:21;;;;;;;3.72;1.60;;;26.60;71.50;;;;;;4999914;28;20408;-88
2022/06/22 10:30:02;;;;;;;4.30;1.50;;;26.70;69.30;;;;;;5001890;28;20450;-87
2022/06/22 10:33:16;;;;;;;4.72;1.50;;;26.70;74.10;;;;;;4998847;28;20443;-87
2022/06/22 10:36:23;;;;;;;3.75;1.30;;;26.90;74.20;;;;;;5001689;28;20417;-84
2022/06/22 10:39:00;;;;;;;2.47;1.10;;;25.20;71.50;;;;;;5011948;28;20412;-87
2022/06/22 10:45:09;;;;;;;4.87;1.60;;;27.10;73.60;;;;;;5009201;28;20406;-87
2022/06/22 10:48:12;;;;;;;3.42;1.40;;;27.10;73.80;;;;;;5010325;28;20455;-88
2022/06/22 10:50:49;;;;;;;3.47;1.60;;;27.40;69.70;;;;;;5012140;28;20418;-85
2022/06/22 10:53:33;;;;;;;2.83;1.20;;;27.40;68.70;;;;;;5010489;28;20451;-84
2022/06/22 10:56:11;;;;;;;4.75;1.55;;;27.40;69.40;;;;;;5011921;28;20452;-88
2022/06/22 10:58:47;;;;;;;3.40;1.25;;;;;;;;;;5010605;28;20470;-88
2022/06/22 11:01:15;;;;;;;2.97;1.20;;;27.40;68.50;;;;;;5010042;28;20729;-86
2022/06/22 11:04:15;;;;;;;3.95;1.42;;;27.30;73.00;;;;;;5009562;28;21242;-86
2022/06/22 11:07:05;;;;;;;3.00;1.20;;;27.30;70.50;;;;;;5008651;28;20390;-85
2022/06/22 11:09:58;;;;;;;4.15;1.58;;;27.00;68.50;;;;;;5009319;28;20737;-87
2022/06/22 11:12:27;;;;;;;3.53;1.13;;;26.70;69.10;;;;;;5003969;28;20417;-88
2022/06/22 11:15:05;;;;;;;4.45;1.30;;;26.60;69.00;;;;;;5024402;28;20403;-85
2022/06/22 11:17:50;;;;;;;2.85;1.33;;;26.30;68.60;;;;;;5009301;28;20387;-83
2022/06/22 11:20:54;;;;;;;3.70;1.30;;;26.30;68.80;;;;;;5008706;28;20741;-85
2022/06/22 11:23:48;;;;;;;4.45;1.20;;;26.20;72.20;;;;;;5008908;28;20575;-86
2022/06/22 11:33:07;;;;;;;2.75;1.25;;;26.70;70.90;;;;;;4992890;28;20429;-89
2022/06/22 11:36:00;;;;;;;2.50;1.25;;;26.70;72.70;;;;;;5009985;28;20758;-86
2022/06/22 11:39:04;;;;;;;2.25;1.30;;;26.90;70.70;;;;;;5010166;28;21614;-85
2022/06/22 11:41:48;;;;;;;2.90;1.42;;;27.00;69.00;;;;;;5008415;28;20950;-87
2022/06/22 11:44:30;;;;;;;2.88;1.17;;;27.00;69.60;;;;;;5009031;28;20844;-87
2022/06/22 11:47:04;;;;;;;2.80;1.30;;;26.90;70.60;;;;;;5009120;28;20415;-88
2022/06/22 11:50:01;;;;;;;2.22;1.20;;;26.90;69.20;;;;;;5012290;28;20417;-87
2022/06/22 11:52:38;;;;;;;4.55;1.23;;;26.90;69.70;;;;;;5015246;28;20395;-84
2022/06/22 11:55:14;;;;;;;3.17;1.13;;;26.90;71.70;;;;;;5014897;28;20387;-87
2022/06/22 11:57:57;;;;;;;1.93;1.40;;;27.00;72.10;;;;;;5013215;28;20804;-87
2022/06/22 12:00:34;;;;;;;2.58;1.35;;;26.90;67.70;;;;;;5012203;28;20410;-89
2022/06/22 12:03:23;;;;;;;3.42;1.15;;;26.50;66.70;;;;;;5012246;28;20950;-86
2022/06/22 12:05:58;;;;;;;2.90;1.08;;;26.60;68.30;;;;;;5012350;28;20402;-87
2022/06/22 12:08:44;;;;;;;2.95;1.30;;;26.60;69.90;;;;;;5011715;28;20415;-88
2022/06/22 12:11:15;;;;;;;2.00;1.30;;;26.70;73.40;;;;;;5012511;28;20880;-87
2022/06/22 12:16:36;;;;;;;3.92;1.23;;;27.00;71.90;;;;;;5015397;28;20988;-85
2022/06/22 12:19:11;;;;;;;2.42;1.15;;;27.00;67.30;;;;;;5013598;28;20390;-87
2022/06/22 12:21:54;;;;;;;3.55;1.17;;;26.80;68.80;;;;;;5013334;28;20960;-86
2022/06/22 12:24:53;;;;;;;7.80;1.58;;;26.80;69.50;;;;;;5012882;28;20391;-84
2022/06/22 12:27:42;;;;;;;12.50;2.33;;;26.80;68.00;;;;;;5012061;28;21546;-84
2022/06/22 12:30:26;;;;;;;3.45;1.30;;;26.60;68.80;;;;;;5013891;28;20383;-87
2022/06/22 12:33:08;;;;;;;6.20;1.40;;;26.50;71.10;;;;;;5013773;28;20979;-84
2022/06/22 12:35:51;;;;;;;14.98;2.65;;;26.60;71.50;;;;;;5013780;28;20458;-86
2022/06/22 12:38:20;;;;;;;2.73;1.17;;;26.60;70.40;;;;;;5011329;28;20490;-86
2022/06/22 12:41:25;;;;;;;8.18;1.30;;;26.70;69.40;;;;;;5014210;28;20379;-87
2022/06/22 12:43:54;;;;;;;3.08;1.20;;;26.90;71.30;;;;;;5017102;28;20390;-84
2022/06/22 12:46:44;;;;;;;3.65;1.30;;;27.10;69.10;;;;;;5015412;28;20367;-86
2022/06/22 12:49:26;;;;;;;2.08;1.10;;;27.30;67.10;;;;;;5013241;28;20391;-88
2022/06/22 12:52:07;;;;;;;1.83;1.27;;;27.30;66.30;;;;;;5011578;28;20483;-87
2022/06/22 12:54:45;;;;;;;3.75;1.45;;;27.20;67.60;;;;;;5012740;28;20765;-86
2022/06/22 12:57:22;;;;;;;2.60;1.30;;;27.10;68.40;;;;;;5012956;28;20928;-85
2022/06/22 13:00:16;;;;;;;3.73;1.70;;;27.20;67.80;;;;;;5012923;28;20387;-87
2022/06/22 13:02:44;;;;;;;6.03;1.88;;;27.10;68.00;;;;;;5010254;28;20387;-86
2022/06/22 13:05:15;;;;;;;6.03;1.57;;;26.90;71.40;;;;;;5012048;28;20430;-87
2022/06/22 13:08:00;;;;;;;1.88;1.20;;;26.90;71.30;;;;;;5011794;28;20402;-87
2022/06/22 13:10:31;;;;;;;1.52;1.08;;;27.10;66.30;;;;;;5011996;28;20375;-85
2022/06/22 13:13:02;;;;;;;2.08;1.20;;;26.90;66.40;;;;;;5013291;28;20406;-85
2022/06/22 13:15:38;;;;;;;1.80;1.23;;;26.90;68.20;;;;;;5011124;28;20387;-84
2022/06/22 13:18:25;;;;;;;2.53;1.23;;;26.90;66.40;;;;;;5005845;28;20412;-85
2022/06/22 13:20:54;;;;;;;2.07;1.10;;;26.70;64.70;;;;;;5007923;28;20402;-87
2022/06/22 13:23:45;;;;;;;6.67;1.60;;;26.60;64.70;;;;;;5008815;28;20381;-85
2022/06/22 13:26:39;;;;;;;3.38;1.30;;;26.50;66.50;;;;;;5005840;28;20405;-87
2022/06/22 13:29:14;;;;;;;1.77;1.00;;;;;;;;;;5012303;28;20765;-85
2022/06/22 13:31:43;;;;;;;2.92;1.35;;;27.00;65.80;;;;;;5012051;28;20880;-87
2022/06/22 13:34:17;;;;;;;4.65;1.30;;;26.90;68.60;;;;;;5009890;28;20391;-88
2022/06/22 13:36:51;;;;;;;2.60;1.20;;;26.90;68.30;;;;;;5008173;28;20412;-87
2022/06/22 13:39:39;;;;;;;2.78;1.20;;;27.10;69.50;;;;;;4992193;28;20508;-85
2022/06/22 13:42:21;;;;;;;3.17;1.20;;;27.10;65.10;;;;;;5012623;28;20394;-87
2022/06/22 13:45:05;;;;;;;3.03;1.33;;;27.20;67.60;;;;;;5007514;28;20393;-88
2022/06/22 13:47:56;;;;;;;2.75;1.15;;;27.20;65.60;;;;;;4992763;28;20441;-84
2022/06/22 13:51:13;;;;;;;3.35;1.48;;;27.30;68.40;;;;;;5006392;28;20406;-84
2022/06/22 13:54:00;;;;;;;2.47;1.20;;;27.30;68.00;;;;;;5015040;28;20488;-90
2022/06/22 13:56:52;;;;;;;2.83;1.20;;;27.40;67.70;;;;;;4996625;28;20905;-87
2022/06/22 13:59:26;;;;;;;2.53;1.20;;;27.50;63.80;;;;;;4993302;28;20436;-84
2022/06/22 14:02:02;;;;;;;2.55;1.40;;;27.20;64.40;;;;;;4991335;28;20468;-86
2022/06/22 14:05:09;;;;;;;6.57;1.50;;;27.10;67.70;;;;;;4998812;28;20942;-83
2022/06/22 14:07:42;;;;;;;2.03;1.20;;;27.00;67.90;;;;;;4954662;28;20414;-86
2022/06/22 14:10:50;;;;;;;1.75;1.17;;;27.10;66.30;;;;;;5005022;28;21001;-85
2022/06/22 14:13:16;;;;;;;3.08;1.30;;;27.20;64.80;;;;;;5011097;28;20367;-85